Time;durP1;ratioP1;P1;durP2;ratioP2;P2;SDS_P1;SDS_P2;PMS_P1;PMS_P2;Temp;Humidity;BMP_temperature;BMP_pressure;BME280_temperature;BME280_humidity;BME280_pressure;Samples;Min_cycle;Max_cycle;Signal;HPM_P1;HPM_P2
2023/03/27 00:01:23;;;;;;;0.00;0.00;;;10.70;95.10;;;;;;5013905;28;20104;-66
2023/03/27 00:03:50;;;;;;;0.10;0.10;;;10.70;94.70;;;;;;5013764;28;20088;-66
2023/03/27 00:06:17;;;;;;;0.10;0.10;;;10.70;94.10;;;;;;5013660;28;20022;-66
2023/03/27 00:08:45;;;;;;;0.28;0.28;;;10.70;93.80;;;;;;5013795;28;20033;-65
2023/03/27 00:11:10;;;;;;;0.17;0.10;;;10.70;94.30;;;;;;5013881;28;20034;-65
2023/03/27 00:13:37;;;;;;;0.10;0.10;;;10.70;94.60;;;;;;5013270;28;20079;-65
2023/03/27 00:16:04;;;;;;;0.13;0.10;;;10.60;94.70;;;;;;5013370;28;20026;-66
2023/03/27 00:18:32;;;;;;;0.05;0.00;;;10.60;94.30;;;;;;5013182;28;20048;-66
2023/03/27 00:20:59;;;;;;;0.00;0.00;;;10.70;93.40;;;;;;5013506;28;20412;-65
2023/03/27 00:23:28;;;;;;;0.03;0.00;;;10.60;93.70;;;;;;5013531;28;20049;-66
2023/03/27 00:25:56;;;;;;;0.17;0.17;;;10.60;94.00;;;;;;5013586;28;20049;-65
2023/03/27 00:28:27;;;;;;;2.10;0.20;;;10.50;94.20;;;;;;5013379;28;20471;-66
2023/03/27 00:30:54;;;;;;;0.30;0.10;;;10.50;94.40;;;;;;5013484;28;20029;-66
2023/03/27 00:33:20;;;;;;;1.50;0.30;;;10.40;94.80;;;;;;5013648;28;20030;-66
2023/03/27 00:35:47;;;;;;;0.28;0.22;;;10.40;95.00;;;;;;5013257;28;20030;-66
2023/03/27 00:38:15;;;;;;;0.37;0.20;;;10.30;95.20;;;;;;5013331;28;20531;-66
2023/03/27 00:40:42;;;;;;;0.63;0.30;;;10.30;95.40;;;;;;5013278;28;20060;-66
2023/03/27 00:43:19;;;;;;;1.33;0.33;;;10.30;95.80;;;;;;5013318;28;20022;-68
2023/03/27 00:45:46;;;;;;;0.32;0.20;;;10.30;96.00;;;;;;5013080;28;20026;-66
2023/03/27 00:48:12;;;;;;;1.70;0.20;;;10.30;96.10;;;;;;5012815;28;20061;-66
2023/03/27 00:50:41;;;;;;;0.35;0.30;;;10.20;96.30;;;;;;5013025;28;20026;-67
2023/03/27 00:53:12;;;;;;;1.67;0.57;;;10.30;96.40;;;;;;5013087;28;20026;-66
2023/03/27 00:55:42;;;;;;;0.90;0.60;;;10.30;96.60;;;;;;5013008;28;20397;-66
2023/03/27 00:58:21;;;;;;;1.30;0.20;;;10.30;96.70;;;;;;5011347;28;20045;-66
2023/03/27 01:00:51;;;;;;;0.83;0.30;;;10.30;97.10;;;;;;5009984;28;20101;-67
2023/03/27 01:03:19;;;;;;;2.78;0.60;;;10.30;96.80;;;;;;5010251;28;20037;-66
2023/03/27 01:05:46;;;;;;;0.77;0.50;;;10.30;96.80;;;;;;5012133;28;20025;-66
2023/03/27 01:08:13;;;;;;;2.97;0.50;;;10.20;96.80;;;;;;5012637;28;20026;-68
2023/03/27 01:11:05;;;;;;;0.55;0.40;;;10.30;97.10;;;;;;5012818;28;20084;-66
2023/03/27 01:14:02;;;;;;;1.65;0.50;;;10.20;97.10;;;;;;5012297;28;20048;-66
2023/03/27 01:16:57;;;;;;;0.98;0.45;;;10.20;97.20;;;;;;5012778;28;20053;-65
2023/03/27 01:19:41;;;;;;;0.82;0.50;;;10.20;97.00;;;;;;5012753;28;20453;-66
2023/03/27 01:22:44;;;;;;;0.80;0.30;;;10.20;97.20;;;;;;5012824;28;20050;-66
2023/03/27 01:25:19;;;;;;;0.22;0.17;;;10.20;97.30;;;;;;5012685;28;20184;-67
2023/03/27 01:28:18;;;;;;;1.10;0.30;;;10.20;97.40;;;;;;5012291;28;20030;-66
2023/03/27 01:31:30;;;;;;;1.23;0.23;;;10.20;97.40;;;;;;5012542;28;20037;-66
2023/03/27 01:34:17;;;;;;;0.20;0.10;;;10.30;97.30;;;;;;5004859;28;20034;-66
2023/03/27 01:36:49;;;;;;;2.33;0.20;;;10.30;97.30;;;;;;5011006;28;20038;-67
2023/03/27 01:39:20;;;;;;;0.83;0.20;;;10.30;97.20;;;;;;5012358;28;20037;-66
2023/03/27 01:41:54;;;;;;;0.98;0.20;;;10.30;97.10;;;;;;5012494;28;20766;-67
2023/03/27 01:44:30;;;;;;;0.50;0.10;;;10.30;96.90;;;;;;5012281;28;20030;-66
2023/03/27 01:47:12;;;;;;;0.85;0.28;;;10.30;96.80;;;;;;5012614;28;20052;-65
2023/03/27 01:49:47;;;;;;;1.42;0.40;;;10.30;96.90;;;;;;5012486;28;20486;-65
2023/03/27 01:52:23;;;;;;;1.02;0.20;;;10.30;97.10;;;;;;5012493;28;20100;-65
2023/03/27 01:54:57;;;;;;;0.57;0.20;;;10.20;97.10;;;;;;5012562;28;20030;-66
2023/03/27 01:57:28;;;;;;;0.23;0.20;;;10.20;97.30;;;;;;5012500;28;20045;-66
2023/03/27 02:00:01;;;;;;;2.00;0.60;;;10.20;97.30;;;;;;5012170;28;20037;-66
2023/03/27 02:02:31;;;;;;;;;;;10.20;97.40;;;;;;5012545;28;20038;-66
2023/03/27 02:05:07;;;;;;;1.52;1.00;;;10.20;97.40;;;;;;5012217;28;19967;-66
2023/03/27 02:07:46;;;;;;;1.97;0.90;;;10.20;97.40;;;;;;5012357;28;20473;-66
2023/03/27 02:10:18;;;;;;;2.25;1.15;;;10.20;97.50;;;;;;5012504;28;20033;-66
2023/03/27 02:12:49;;;;;;;1.98;1.10;;;10.20;97.50;;;;;;5012442;28;20029;-66
2023/03/27 02:15:22;;;;;;;4.43;0.80;;;10.20;97.50;;;;;;5015570;28;20026;-67
2023/03/27 02:18:04;;;;;;;0.50;0.30;;;10.20;97.60;;;;;;5015582;28;20036;-66
2023/03/27 02:20:31;;;;;;;1.77;0.30;;;10.20;97.60;;;;;;5015865;28;20650;-66
2023/03/27 02:22:59;;;;;;;2.25;0.30;;;10.20;97.60;;;;;;5015714;28;20029;-66
2023/03/27 02:25:34;;;;;;;2.75;0.30;;;10.20;97.50;;;;;;5015448;28;20033;-65
2023/03/27 02:28:08;;;;;;;2.22;0.22;;;10.20;97.40;;;;;;5015349;28;20113;-65
2023/03/27 02:30:49;;;;;;;0.57;0.40;;;10.20;97.30;;;;;;5015245;28;20040;-66
2023/03/27 02:33:52;;;;;;;0.25;0.20;;;10.10;97.30;;;;;;5013864;28;20470;-66
2023/03/27 02:36:42;;;;;;;;;;;10.10;97.30;;;;;;5015597;28;20030;-65
2023/03/27 02:39:35;;;;;;;0.67;0.20;;;10.10;97.30;;;;;;5015030;28;19917;-65
2023/03/27 02:42:01;;;;;;;0.53;0.20;;;10.10;97.20;;;;;;5015034;28;20022;-65
2023/03/27 02:45:02;;;;;;;2.10;0.30;;;10.10;97.20;;;;;;5015063;28;20026;-65
2023/03/27 02:47:51;;;;;;;1.63;0.20;;;10.10;97.20;;;;;;5012680;28;20046;-66
2023/03/27 02:50:29;;;;;;;0.90;0.10;;;10.10;97.20;;;;;;5015136;28;20041;-63
2023/03/27 02:52:59;;;;;;;0.47;0.20;;;10.10;97.20;;;;;;5015193;28;20458;-65
2023/03/27 02:55:34;;;;;;;0.35;0.20;;;10.00;97.00;;;;;;5014734;28;20030;-65
2023/03/27 02:58:05;;;;;;;0.00;0.00;;;10.00;97.00;;;;;;5014924;28;20030;-65
2023/03/27 03:00:36;;;;;;;0.17;0.10;;;10.00;97.10;;;;;;5014925;28;20021;-65
2023/03/27 03:03:19;;;;;;;0.70;0.20;;;10.00;97.00;;;;;;5015110;28;20427;-66
2023/03/27 03:05:45;;;;;;;1.17;0.17;;;9.90;97.10;;;;;;5014801;28;20079;-65
2023/03/27 03:08:13;;;;;;;0.33;0.10;;;9.90;97.20;;;;;;5014923;28;20022;-65
2023/03/27 03:10:44;;;;;;;1.90;0.23;;;9.80;97.30;;;;;;5014979;28;20018;-65
2023/03/27 03:13:10;;;;;;;0.27;0.10;;;9.80;97.50;;;;;;5014819;28;20036;-65
2023/03/27 03:15:36;;;;;;;1.90;0.10;;;9.80;97.60;;;;;;5014736;28;20014;-65
2023/03/27 03:18:02;;;;;;;0.30;0.20;;;9.80;97.70;;;;;;5014579;28;20045;-65
2023/03/27 03:20:28;;;;;;;1.57;0.10;;;9.80;97.90;;;;;;5014670;28;20172;-66
2023/03/27 03:22:56;;;;;;;0.00;0.00;;;9.80;98.00;;;;;;5014693;28;20022;-65
2023/03/27 03:25:22;;;;;;;0.20;0.20;;;9.90;98.00;;;;;;5014334;28;20504;-66
2023/03/27 03:27:48;;;;;;;0.10;0.10;;;9.90;98.00;;;;;;5014352;28;20041;-65
2023/03/27 03:30:14;;;;;;;1.20;0.10;;;9.90;97.90;;;;;;5014478;28;20030;-66
2023/03/27 03:32:40;;;;;;;0.20;0.13;;;9.90;97.90;;;;;;5014387;28;20050;-65
2023/03/27 03:35:08;;;;;;;1.70;0.13;;;9.90;97.90;;;;;;5014362;28;20080;-66
2023/03/27 03:37:37;;;;;;;1.07;0.20;;;9.90;97.80;;;;;;5014246;28;20022;-66
2023/03/27 03:40:10;;;;;;;0.50;0.10;;;9.90;97.60;;;;;;5014297;28;20052;-65
2023/03/27 03:42:42;;;;;;;0.20;0.17;;;9.90;97.50;;;;;;5014618;28;20029;-66
2023/03/27 03:45:08;;;;;;;0.75;0.10;;;9.90;97.40;;;;;;5014234;28;20037;-65
2023/03/27 03:47:34;;;;;;;1.10;0.23;;;9.90;97.30;;;;;;5013993;28;20046;-65
2023/03/27 03:50:00;;;;;;;1.73;0.20;;;9.90;97.30;;;;;;5014165;28;20088;-65
2023/03/27 03:52:26;;;;;;;0.30;0.20;;;9.90;97.30;;;;;;5013737;28;20018;-65
2023/03/27 03:54:52;;;;;;;0.95;0.40;;;9.90;97.30;;;;;;5014119;28;20080;-65
2023/03/27 03:57:18;;;;;;;0.90;0.35;;;9.90;97.30;;;;;;5013951;28;20022;-65
2023/03/27 03:59:43;;;;;;;0.20;0.20;;;9.90;97.40;;;;;;5013714;28;20030;-65
2023/03/27 04:02:11;;;;;;;0.33;0.30;;;9.90;97.40;;;;;;5013961;28;20045;-66
2023/03/27 04:04:37;;;;;;;0.57;0.40;;;9.90;97.50;;;;;;5013752;28;20470;-65
2023/03/27 04:07:04;;;;;;;0.50;0.40;;;9.90;97.40;;;;;;5013598;28;20024;-65
2023/03/27 04:09:30;;;;;;;1.95;0.40;;;9.90;97.40;;;;;;5013816;28;20038;-65
2023/03/27 04:11:56;;;;;;;0.97;0.43;;;9.90;97.50;;;;;;5013490;28;20509;-65
2023/03/27 04:14:21;;;;;;;2.72;0.50;;;9.90;97.60;;;;;;5013353;28;20490;-65
2023/03/27 04:16:47;;;;;;;0.73;0.40;;;9.90;97.60;;;;;;5013818;28;20028;-65
2023/03/27 04:19:13;;;;;;;0.47;0.30;;;9.90;97.50;;;;;;5013630;28;20037;-65
2023/03/27 04:21:41;;;;;;;1.95;0.30;;;9.90;97.50;;;;;;5013368;28;20121;-65
2023/03/27 04:24:07;;;;;;;2.00;0.30;;;9.90;97.40;;;;;;5013312;28;20532;-65
2023/03/27 04:26:34;;;;;;;1.90;0.40;;;9.90;97.40;;;;;;5013403;28;20084;-66
2023/03/27 04:29:00;;;;;;;0.83;0.40;;;9.90;97.60;;;;;;5013696;28;20030;-66
2023/03/27 04:31:25;;;;;;;0.63;0.28;;;9.80;97.60;;;;;;5013330;28;20153;-66
2023/03/27 04:33:51;;;;;;;0.55;0.35;;;9.80;97.60;;;;;;5013106;28;20041;-66
2023/03/27 04:36:18;;;;;;;0.32;0.32;;;9.80;97.60;;;;;;5012682;28;20030;-65
2023/03/27 04:38:44;;;;;;;0.50;0.30;;;9.80;97.60;;;;;;5013111;28;20069;-65
2023/03/27 04:41:10;;;;;;;0.30;0.20;;;9.80;97.60;;;;;;5013102;28;20026;-66
2023/03/27 04:43:38;;;;;;;0.30;0.20;;;9.80;97.60;;;;;;5012959;28;20041;-65
2023/03/27 04:46:05;;;;;;;0.67;0.20;;;9.80;97.50;;;;;;5012962;28;20093;-65
2023/03/27 04:48:31;;;;;;;1.53;0.30;;;9.80;97.10;;;;;;5012708;28;20053;-65
2023/03/27 04:50:57;;;;;;;1.10;0.40;;;9.80;97.40;;;;;;5013077;28;20025;-65
2023/03/27 04:53:28;;;;;;;2.23;0.87;;;9.80;97.70;;;;;;5013497;28;20030;-65
2023/03/27 04:55:56;;;;;;;3.40;0.33;;;9.80;97.60;;;;;;5013084;28;20026;-65
2023/03/27 04:58:24;;;;;;;3.20;0.30;;;9.80;97.70;;;;;;5013114;28;20030;-65
2023/03/27 05:00:54;;;;;;;1.03;0.40;;;9.80;97.60;;;;;;5013144;28;20033;-66
2023/03/27 05:03:21;;;;;;;2.60;0.30;;;9.80;97.50;;;;;;5012954;28;20240;-65
2023/03/27 05:05:50;;;;;;;1.90;0.10;;;9.80;97.50;;;;;;5012894;28;20053;-65
2023/03/27 05:08:17;;;;;;;2.33;0.30;;;9.70;97.70;;;;;;5013120;28;20018;-65
2023/03/27 05:10:44;;;;;;;1.80;0.30;;;9.80;97.60;;;;;;5012822;28;20568;-66
2023/03/27 05:13:09;;;;;;;1.70;1.20;;;9.80;97.60;;;;;;5013044;28;20323;-65
2023/03/27 05:15:35;;;;;;;3.50;2.75;;;9.80;97.50;;;;;;5012750;28;20108;-66
2023/03/27 05:18:01;;;;;;;3.70;2.60;;;9.80;97.50;;;;;;5012636;28;20109;-65
2023/03/27 05:20:27;;;;;;;4.67;2.70;;;9.80;97.50;;;;;;5012861;28;20022;-66
2023/03/27 05:22:55;;;;;;;4.77;2.67;;;9.80;97.50;;;;;;5012877;28;20030;-65
2023/03/27 05:25:21;;;;;;;2.67;1.80;;;9.80;97.50;;;;;;5012900;28;20433;-66
2023/03/27 05:27:48;;;;;;;2.73;1.80;;;9.80;97.60;;;;;;5012866;28;20054;-65
2023/03/27 05:30:16;;;;;;;1.50;1.10;;;9.80;97.50;;;;;;5012623;28;20029;-66
2023/03/27 05:32:50;;;;;;;3.23;1.03;;;9.80;97.50;;;;;;5012071;28;20048;-65
2023/03/27 05:35:17;;;;;;;3.47;0.77;;;9.80;97.60;;;;;;5012398;28;20065;-65
2023/03/27 05:37:47;;;;;;;0.90;0.70;;;9.80;97.60;;;;;;5012536;28;20029;-65
2023/03/27 05:40:15;;;;;;;1.70;0.70;;;9.80;97.60;;;;;;5012433;28;20038;-65
2023/03/27 05:42:44;;;;;;;2.80;1.20;;;9.80;97.70;;;;;;5012489;28;20036;-66
2023/03/27 05:45:11;;;;;;;6.80;2.80;;;9.80;97.70;;;;;;5012416;28;20109;-65
2023/03/27 05:47:51;;;;;;;11.05;6.10;;;9.90;97.80;;;;;;5013013;28;20050;-66
2023/03/27 05:50:19;;;;;;;16.53;10.97;;;9.90;97.70;;;;;;5016085;28;20109;-67
2023/03/27 05:52:45;;;;;;;13.47;8.90;;;9.90;97.60;;;;;;5015795;28;20050;-66
2023/03/27 05:55:13;;;;;;;10.97;7.37;;;9.90;97.70;;;;;;5015894;28;20057;-66
2023/03/27 05:57:40;;;;;;;6.13;3.70;;;9.90;97.70;;;;;;5015729;28;20018;-66
2023/03/27 06:00:12;;;;;;;5.60;2.95;;;9.90;97.70;;;;;;5015927;28;20077;-65
2023/03/27 06:02:39;;;;;;;3.88;2.40;;;9.90;97.60;;;;;;5016145;28;20049;-66
2023/03/27 06:05:09;;;;;;;7.80;2.95;;;9.90;97.50;;;;;;5016097;28;20348;-65
2023/03/27 06:07:37;;;;;;;3.10;1.95;;;9.90;97.50;;;;;;5016031;28;20109;-66
2023/03/27 06:10:07;;;;;;;4.15;1.63;;;9.90;97.50;;;;;;5015788;28;20037;-64
2023/03/27 06:12:35;;;;;;;2.87;1.53;;;9.90;97.50;;;;;;5015784;28;20498;-66
2023/03/27 06:15:03;;;;;;;3.23;1.50;;;9.90;97.50;;;;;;4997732;28;20356;-64
2023/03/27 06:17:28;;;;;;;3.10;1.67;;;9.90;97.40;;;;;;4995558;28;20023;-65
2023/03/27 06:19:55;;;;;;;4.28;2.20;;;9.90;97.40;;;;;;4994480;28;20038;-65
2023/03/27 06:22:20;;;;;;;2.85;1.60;;;9.90;97.30;;;;;;4995729;28;20018;-65
2023/03/27 06:24:46;;;;;;;2.97;1.70;;;9.90;97.40;;;;;;4995796;28;20514;-65
2023/03/27 06:27:12;;;;;;;2.60;1.52;;;9.90;97.40;;;;;;4995737;28;20131;-65
2023/03/27 06:29:37;;;;;;;2.13;1.23;;;9.90;97.60;;;;;;4995729;28;20101;-65
2023/03/27 06:32:03;;;;;;;2.73;1.20;;;9.90;97.70;;;;;;4995744;28;20026;-64
2023/03/27 06:34:29;;;;;;;2.60;1.10;;;9.90;97.70;;;;;;4995661;28;20065;-65
2023/03/27 06:36:55;;;;;;;1.53;0.60;;;9.90;97.70;;;;;;4995768;28;20356;-66
2023/03/27 06:39:20;;;;;;;1.48;0.90;;;9.90;97.70;;;;;;4994044;28;20045;-66
2023/03/27 06:41:46;;;;;;;2.90;0.80;;;9.90;97.70;;;;;;4995676;28;20031;-65
2023/03/27 06:44:12;;;;;;;3.38;0.75;;;9.90;98.00;;;;;;4994307;28;20030;-65
2023/03/27 06:46:38;;;;;;;3.57;1.30;;;10.00;97.80;;;;;;4995425;28;20042;-65
2023/03/27 06:49:03;;;;;;;2.03;1.07;;;10.00;97.80;;;;;;4995392;28;20080;-65
2023/03/27 06:51:29;;;;;;;2.03;1.00;;;10.00;97.90;;;;;;4995380;28;20136;-65
2023/03/27 06:53:55;;;;;;;2.10;0.90;;;10.00;97.90;;;;;;4994930;28;20045;-65
2023/03/27 06:56:21;;;;;;;2.53;0.98;;;10.00;97.90;;;;;;4995082;28;20026;-65
2023/03/27 06:58:46;;;;;;;3.15;0.60;;;10.00;97.80;;;;;;4994898;28;20042;-66
2023/03/27 07:01:12;;;;;;;2.90;0.70;;;10.00;97.60;;;;;;4994959;28;20387;-66
2023/03/27 07:03:38;;;;;;;1.63;0.80;;;10.00;97.60;;;;;;4995458;28;20026;-65
2023/03/27 07:06:04;;;;;;;2.10;0.80;;;10.00;97.70;;;;;;4995383;28;20041;-66
2023/03/27 07:08:30;;;;;;;3.83;1.00;;;10.00;97.70;;;;;;4995282;28;20088;-65
2023/03/27 07:10:56;;;;;;;1.95;0.85;;;10.10;97.80;;;;;;4993837;28;20599;-65
2023/03/27 07:13:22;;;;;;;3.05;0.90;;;10.10;97.90;;;;;;4994997;28;20026;-65
2023/03/27 07:15:47;;;;;;;4.20;0.98;;;10.10;97.90;;;;;;4995025;28;20022;-66
2023/03/27 07:18:14;;;;;;;1.83;0.95;;;10.10;97.80;;;;;;4994654;28;20078;-65
2023/03/27 07:20:40;;;;;;;4.90;1.00;;;10.10;97.80;;;;;;4995029;28;20457;-65
2023/03/27 07:23:06;;;;;;;8.20;1.38;;;10.20;97.70;;;;;;4994727;28;20022;-65
2023/03/27 07:25:36;;;;;;;2.73;1.10;;;10.20;97.80;;;;;;4994539;28;20026;-65
2023/03/27 07:28:04;;;;;;;3.05;1.38;;;10.20;97.80;;;;;;4994876;28;20031;-65
2023/03/27 07:30:31;;;;;;;4.88;1.38;;;10.20;97.80;;;;;;4993390;28;20081;-65
2023/03/27 07:32:57;;;;;;;4.85;1.42;;;10.20;97.80;;;;;;4993944;28;20224;-65
2023/03/27 07:35:24;;;;;;;3.50;1.65;;;10.30;97.90;;;;;;4993518;28;20037;-65
2023/03/27 07:37:52;;;;;;;4.25;1.27;;;10.30;98.00;;;;;;4994770;28;20383;-65
2023/03/27 07:40:20;;;;;;;3.70;1.38;;;10.30;97.90;;;;;;4994478;28;20038;-65
2023/03/27 07:42:48;;;;;;;5.43;1.40;;;10.30;98.10;;;;;;4994410;28;20105;-65
2023/03/27 07:45:15;;;;;;;5.10;1.90;;;10.40;98.10;;;;;;4993234;28;20394;-65
2023/03/27 07:47:42;;;;;;;2.45;1.83;;;10.40;98.00;;;;;;4993660;28;20140;-65
2023/03/27 07:50:10;;;;;;;3.10;1.77;;;10.40;98.00;;;;;;4994487;28;20034;-65
2023/03/27 07:52:39;;;;;;;3.38;1.85;;;10.40;98.00;;;;;;4994121;28;20026;-66
2023/03/27 07:55:06;;;;;;;4.07;2.30;;;10.40;98.10;;;;;;4994571;28;20018;-65
2023/03/27 07:57:37;;;;;;;2.93;2.30;;;10.40;98.10;;;;;;4994419;28;20037;-65
2023/03/27 08:00:10;;;;;;;5.35;2.58;;;10.50;98.40;;;;;;4994102;28;20034;-64
2023/03/27 08:02:37;;;;;;;4.55;2.58;;;10.50;98.50;;;;;;4994132;28;20105;-64
2023/03/27 08:05:05;;;;;;;5.40;2.83;;;10.50;98.50;;;;;;4994293;28;20050;-65
2023/03/27 08:07:31;;;;;;;5.05;2.97;;;10.60;98.60;;;;;;4994199;28;20026;-64
2023/03/27 08:09:57;;;;;;;4.03;2.83;;;10.60;98.60;;;;;;4994145;28;20037;-65
2023/03/27 08:12:23;;;;;;;4.22;2.90;;;10.60;98.50;;;;;;4994341;28;20023;-65
2023/03/27 08:14:48;;;;;;;7.22;3.22;;;10.60;98.50;;;;;;4994331;28;20113;-64
2023/03/27 08:17:14;;;;;;;4.63;2.75;;;10.60;98.40;;;;;;4994270;28;20141;-64
2023/03/27 08:19:40;;;;;;;3.42;2.58;;;10.70;98.30;;;;;;4993991;28;20478;-64
2023/03/27 08:22:07;;;;;;;5.30;2.70;;;10.70;98.20;;;;;;4994089;28;20091;-65
2023/03/27 08:24:34;;;;;;;5.72;2.58;;;10.70;98.10;;;;;;4994235;28;20022;-65
2023/03/27 08:26:59;;;;;;;3.58;2.30;;;10.80;98.20;;;;;;4993981;28;20502;-65
2023/03/27 08:29:25;;;;;;;6.70;2.85;;;10.80;98.10;;;;;;4994115;28;20031;-65
2023/03/27 08:31:51;;;;;;;4.90;3.33;;;10.80;98.20;;;;;;4993740;28;20027;-64
2023/03/27 08:34:17;;;;;;;4.00;3.03;;;10.90;98.30;;;;;;4993866;28;20022;-65
2023/03/27 08:36:42;;;;;;;5.53;2.60;;;10.90;98.20;;;;;;4993854;28;20023;-65
2023/03/27 08:39:08;;;;;;;11.98;2.60;;;10.90;98.20;;;;;;4993759;28;20038;-65
2023/03/27 08:41:48;;;;;;;5.25;2.60;;;11.00;98.20;;;;;;4993666;28;20050;-65
2023/03/27 08:44:18;;;;;;;9.27;3.20;;;11.00;98.00;;;;;;4992348;28;20371;-65
2023/03/27 08:46:53;;;;;;;6.32;3.15;;;11.00;97.90;;;;;;4993006;28;20101;-64
2023/03/27 08:49:21;;;;;;;4.53;2.60;;;11.10;97.70;;;;;;4993138;28;20026;-65
2023/03/27 08:51:53;;;;;;;3.45;2.30;;;11.10;97.70;;;;;;4992949;28;20615;-65
2023/03/27 08:54:24;;;;;;;3.50;2.00;;;11.20;97.60;;;;;;4992945;28;20026;-65
2023/03/27 08:56:51;;;;;;;3.00;1.67;;;11.20;97.50;;;;;;4993240;28;20036;-65
2023/03/27 08:59:23;;;;;;;6.60;2.05;;;11.30;97.30;;;;;;4993178;28;20096;-65
2023/03/27 09:02:14;;;;;;;3.35;1.23;;;11.30;97.20;;;;;;4993146;28;20023;-65
2023/03/27 09:04:58;;;;;;;3.88;1.40;;;11.40;96.90;;;;;;4992915;28;20027;-65
2023/03/27 09:07:43;;;;;;;1.88;1.23;;;11.40;96.70;;;;;;4991970;28;20541;-65
2023/03/27 09:10:23;;;;;;;3.20;0.90;;;11.40;96.50;;;;;;4993391;28;20033;-65
2023/03/27 09:13:09;;;;;;;1.55;0.93;;;11.50;96.40;;;;;;4993217;28;20542;-65
2023/03/27 09:15:58;;;;;;;5.43;1.17;;;11.50;96.30;;;;;;4992937;28;20041;-65
2023/03/27 09:18:42;;;;;;;4.82;1.35;;;11.50;95.90;;;;;;4988682;28;20078;-65
2023/03/27 09:21:26;;;;;;;1.23;0.85;;;11.60;95.90;;;;;;4992955;28;20055;-65
2023/03/27 09:23:54;;;;;;;3.00;1.23;;;11.60;95.90;;;;;;4996058;28;20390;-65
2023/03/27 09:26:24;;;;;;;3.30;1.40;;;11.70;95.90;;;;;;4997685;28;20022;-65
2023/03/27 09:29:04;;;;;;;5.95;2.13;;;11.70;95.70;;;;;;4997237;28;20023;-65
2023/03/27 09:31:47;;;;;;;2.20;1.45;;;11.70;95.60;;;;;;4997312;28;20047;-65
2023/03/27 09:34:17;;;;;;;3.95;1.30;;;11.70;95.50;;;;;;4997108;28;20433;-65
2023/03/27 09:36:43;;;;;;;3.40;1.80;;;11.80;95.40;;;;;;4997081;28;20019;-65
2023/03/27 09:39:43;;;;;;;4.20;1.38;;;11.80;95.40;;;;;;4997070;28;20031;-65
2023/03/27 09:42:20;;;;;;;3.03;1.70;;;11.90;95.30;;;;;;4991881;28;20067;-65
2023/03/27 09:44:50;;;;;;;2.63;1.67;;;11.80;94.70;;;;;;4996878;28;20023;-65
2023/03/27 09:47:44;;;;;;;4.68;1.83;;;11.90;94.80;;;;;;4996849;28;20499;-65
2023/03/27 09:50:22;;;;;;;;;;;11.90;95.00;;;;;;4994879;28;20066;-65
2023/03/27 09:52:48;;;;;;;1.70;1.17;;;12.00;95.20;;;;;;4996898;28;19909;-65
2023/03/27 09:55:31;;;;;;;4.80;1.73;;;12.00;94.90;;;;;;4996633;28;20072;-65
2023/03/27 09:58:14;;;;;;;3.35;1.73;;;12.00;95.00;;;;;;4996602;28;20026;-65
2023/03/27 10:00:39;;;;;;;4.82;1.60;;;12.00;95.10;;;;;;4996607;28;20177;-65
2023/03/27 10:03:14;;;;;;;1.80;1.15;;;12.00;95.20;;;;;;4996329;28;20539;-65
2023/03/27 10:05:41;;;;;;;2.92;1.80;;;12.10;95.00;;;;;;4996216;28;20080;-63
2023/03/27 10:08:39;;;;;;;4.38;1.70;;;12.10;94.60;;;;;;4996585;28;20105;-65
2023/03/27 10:11:09;;;;;;;2.60;1.83;;;12.10;94.70;;;;;;4996446;28;20018;-65
2023/03/27 10:13:35;;;;;;;2.42;1.65;;;12.20;94.30;;;;;;4996311;28;20545;-65
2023/03/27 10:16:04;;;;;;;2.45;1.70;;;12.20;94.20;;;;;;4996350;28;20026;-65
2023/03/27 10:18:33;;;;;;;5.63;1.88;;;12.30;94.10;;;;;;4995989;28;20049;-65
2023/03/27 10:21:05;;;;;;;7.07;1.55;;;12.30;94.00;;;;;;4995869;28;20101;-65
2023/03/27 10:23:48;;;;;;;5.20;2.47;;;12.30;94.00;;;;;;4996178;28;20022;-65
2023/03/27 10:26:25;;;;;;;3.40;1.73;;;12.40;93.90;;;;;;4996009;28;20060;-65
2023/03/27 10:28:52;;;;;;;2.83;1.50;;;12.40;94.20;;;;;;4996022;28;20475;-65
2023/03/27 10:31:23;;;;;;;3.13;1.58;;;12.40;94.40;;;;;;4995927;28;20033;-65
2023/03/27 10:33:49;;;;;;;3.95;1.80;;;12.50;94.30;;;;;;4995196;28;20379;-65
2023/03/27 10:36:17;;;;;;;3.35;1.75;;;12.50;94.20;;;;;;4995436;28;20045;-65
2023/03/27 10:38:55;;;;;;;2.72;1.50;;;12.50;93.90;;;;;;4995847;28;20022;-65
2023/03/27 10:41:22;;;;;;;2.40;1.80;;;12.50;93.70;;;;;;4995861;28;20098;-65
2023/03/27 10:43:49;;;;;;;4.53;1.80;;;12.60;93.60;;;;;;4995811;28;20050;-65
2023/03/27 10:46:21;;;;;;;3.67;1.52;;;12.80;93.40;;;;;;4995596;28;20028;-65
2023/03/27 10:48:59;;;;;;;3.40;2.00;;;12.90;93.60;;;;;;4995434;28;20124;-65
2023/03/27 10:51:43;;;;;;;6.13;2.47;;;13.10;93.70;;;;;;4995241;28;20018;-66
2023/03/27 10:54:38;;;;;;;5.95;2.33;;;13.30;93.50;;;;;;4994564;28;20049;-65
2023/03/27 10:57:12;;;;;;;4.35;1.90;;;13.40;93.40;;;;;;4994277;28;20031;-65
2023/03/27 11:00:00;;;;;;;3.42;1.80;;;13.60;93.10;;;;;;4994319;28;20388;-65
2023/03/27 11:02:44;;;;;;;5.05;2.20;;;13.70;92.60;;;;;;4995809;28;20062;-65
2023/03/27 11:05:16;;;;;;;5.03;2.30;;;13.80;91.90;;;;;;4995394;28;20022;-66
2023/03/27 11:07:48;;;;;;;5.05;2.13;;;13.90;90.90;;;;;;4995416;28;20058;-66
2023/03/27 11:10:23;;;;;;;7.18;2.20;;;14.00;90.70;;;;;;4994332;28;20478;-65
2023/03/27 11:13:04;;;;;;;3.38;1.85;;;14.00;90.40;;;;;;4994984;28;20057;-65
2023/03/27 11:15:40;;;;;;;3.85;2.20;;;14.10;90.10;;;;;;4995485;28;20088;-65
2023/03/27 11:18:35;;;;;;;3.63;2.30;;;14.20;90.70;;;;;;4994374;28;20558;-65
2023/03/27 11:21:21;;;;;;;3.58;1.80;;;14.30;89.30;;;;;;4993218;28;20064;-65
2023/03/27 11:23:55;;;;;;;3.47;1.75;;;14.40;89.10;;;;;;4993933;28;20034;-64
2023/03/27 11:26:26;;;;;;;2.13;1.90;;;14.50;87.70;;;;;;4994656;28;20037;-65
2023/03/27 11:29:09;;;;;;;4.50;1.80;;;14.50;86.30;;;;;;4994793;28;20359;-65
2023/03/27 11:31:39;;;;;;;3.75;2.30;;;14.60;87.10;;;;;;4994767;28;20050;-66
2023/03/27 11:34:14;;;;;;;5.43;2.47;;;14.70;86.70;;;;;;4994652;28;20018;-65
2023/03/27 11:36:51;;;;;;;3.15;1.83;;;14.80;86.40;;;;;;4994682;28;20542;-65
2023/03/27 11:39:22;;;;;;;3.60;1.92;;;14.90;85.70;;;;;;4994410;28;20034;-65
2023/03/27 11:41:58;;;;;;;3.67;1.77;;;15.00;84.50;;;;;;4994597;28;20023;-65
2023/03/27 11:44:25;;;;;;;3.45;2.08;;;15.10;82.70;;;;;;4994633;28;20442;-65
2023/03/27 11:47:12;;;;;;;4.50;1.90;;;15.20;83.70;;;;;;4994020;28;20138;-65
2023/03/27 11:50:07;;;;;;;2.60;1.50;;;15.30;81.90;;;;;;4994476;28;20069;-65
2023/03/27 11:52:57;;;;;;;7.03;2.08;;;15.40;81.60;;;;;;4994198;28;20023;-65
2023/03/27 11:55:37;;;;;;;3.97;2.20;;;15.50;81.70;;;;;;4994356;28;20083;-65
2023/03/27 11:58:38;;;;;;;3.40;1.98;;;15.50;81.20;;;;;;4994445;28;20494;-65
2023/03/27 12:01:08;;;;;;;3.78;1.95;;;15.50;79.40;;;;;;4982609;28;20053;-65
2023/03/27 12:04:02;;;;;;;3.22;1.90;;;15.50;80.10;;;;;;4993915;28;20022;-66
2023/03/27 12:06:43;;;;;;;6.10;2.22;;;15.60;81.00;;;;;;4992877;28;20073;-67
2023/03/27 12:09:26;;;;;;;5.85;2.50;;;15.70;81.60;;;;;;4994369;28;20014;-66
2023/03/27 12:12:10;;;;;;;3.03;2.10;;;15.80;79.40;;;;;;4994313;28;20475;-67
2023/03/27 12:14:59;;;;;;;7.22;2.08;;;15.90;79.40;;;;;;4994152;28;20023;-67
2023/03/27 12:18:01;;;;;;;2.85;2.00;;;16.00;77.90;;;;;;4990977;28;20105;-67
2023/03/27 12:20:52;;;;;;;3.85;2.15;;;16.00;75.60;;;;;;4994064;28;20081;-67
2023/03/27 12:23:53;;;;;;;3.90;2.00;;;16.10;76.50;;;;;;4993679;28;20029;-67
2023/03/27 12:26:38;;;;;;;2.65;2.03;;;16.20;76.60;;;;;;4977375;28;20026;-67
2023/03/27 12:29:22;;;;;;;2.92;1.90;;;16.10;75.20;;;;;;4993893;28;20023;-67
2023/03/27 12:32:22;;;;;;;2.80;1.80;;;16.00;78.20;;;;;;4993879;28;20049;-67
2023/03/27 12:34:55;;;;;;;3.63;2.30;;;15.90;77.90;;;;;;4993089;28;20121;-67
2023/03/27 12:37:39;;;;;;;2.97;1.80;;;16.00;78.90;;;;;;4993755;28;20026;-67
2023/03/27 12:40:27;;;;;;;3.15;2.53;;;16.00;79.30;;;;;;4993785;28;20189;-67
2023/03/27 12:43:02;;;;;;;3.45;2.10;;;16.10;78.00;;;;;;4993589;28;20033;-67
2023/03/27 12:45:28;;;;;;;5.75;2.63;;;16.10;76.40;;;;;;4993540;28;20080;-67
2023/03/27 12:48:03;;;;;;;3.47;2.35;;;16.20;75.80;;;;;;4993188;28;20046;-67
2023/03/27 12:50:33;;;;;;;4.63;2.20;;;16.20;76.00;;;;;;4993098;28;20470;-67
2023/03/27 12:53:04;;;;;;;4.10;2.63;;;16.20;77.10;;;;;;4993180;28;20026;-67
2023/03/27 12:55:36;;;;;;;8.52;2.65;;;16.30;76.10;;;;;;4993274;28;20022;-68
2023/03/27 12:58:03;;;;;;;9.13;3.20;;;16.30;77.30;;;;;;4992763;28;20038;-69
2023/03/27 13:00:30;;;;;;;5.82;1.90;;;16.40;77.40;;;;;;4993116;28;20781;-69
2023/03/27 13:03:38;;;;;;;2.72;1.60;;;16.40;76.50;;;;;;4992250;28;20033;-68
2023/03/27 13:06:43;;;;;;;2.33;1.25;;;16.50;75.90;;;;;;4983491;28;20035;-69
2023/03/27 13:09:17;;;;;;;2.53;1.52;;;16.50;72.70;;;;;;4971583;28;20034;-69
2023/03/27 13:12:08;;;;;;;2.17;1.17;;;16.70;72.00;;;;;;4971670;28;20418;-68
2023/03/27 13:14:42;;;;;;;1.90;1.00;;;16.80;71.60;;;;;;4986618;28;20035;-68
2023/03/27 13:17:34;;;;;;;4.28;1.17;;;16.90;67.70;;;;;;4993514;28;20393;-68
2023/03/27 13:20:34;;;;;;;3.13;0.95;;;17.00;68.50;;;;;;4990080;28;20101;-68